sensor_id;sensor_type;location;lat;lon;timestamp;temperature;humidity
68844;DHT22;55850;51.244;6.824;2022-07-29T00:02:18;21.92;47.15
68844;DHT22;55850;51.244;6.824;2022-07-29T00:07:23;21.96;47.35
68844;DHT22;55850;51.244;6.824;2022-07-29T00:12:31;22.04;47.31
68844;DHT22;55850;51.244;6.824;2022-07-29T00:17:37;22.07;47.05
68844;DHT22;55850;51.244;6.824;2022-07-29T00:22:43;22.18;47.14
68844;DHT22;55850;51.244;6.824;2022-07-29T00:27:51;22.01;47.18
68844;DHT22;55850;51.244;6.824;2022-07-29T00:32:56;22.37;46.66
68844;DHT22;55850;51.244;6.824;2022-07-29T00:38:02;22.25;46.82
68844;DHT22;55850;51.244;6.824;2022-07-29T00:43:10;22.07;46.94
68844;DHT22;55850;51.244;6.824;2022-07-29T00:48:16;22.14;47.05
68844;DHT22;55850;51.244;6.824;2022-07-29T00:53:21;22.07;47.12
68844;DHT22;55850;51.244;6.824;2022-07-29T00:58:31;21.92;47.62
68844;DHT22;55850;51.244;6.824;2022-07-29T01:03:36;22.07;47.45
68844;DHT22;55850;51.244;6.824;2022-07-29T01:08:42;22.25;47.21
68844;DHT22;55850;51.244;6.824;2022-07-29T01:13:51;22.33;47.11
68844;DHT22;55850;51.244;6.824;2022-07-29T01:19:07;22.48;46.69
68844;DHT22;55850;51.244;6.824;2022-07-29T01:24:38;22.30;46.76
68844;DHT22;55850;51.244;6.824;2022-07-29T01:29:49;22.11;47.71
68844;DHT22;55850;51.244;6.824;2022-07-29T01:35:03;22.07;47.85
68844;DHT22;55850;51.244;6.824;2022-07-29T01:40:14;22.13;47.77
68844;DHT22;55850;51.244;6.824;2022-07-29T01:45:28;22.18;47.66
68844;DHT22;55850;51.244;6.824;2022-07-29T01:50:41;22.17;47.93
68844;DHT22;55850;51.244;6.824;2022-07-29T01:55:50;22.31;47.75
68844;DHT22;55850;51.244;6.824;2022-07-29T02:01:03;22.38;47.60
68844;DHT22;55850;51.244;6.824;2022-07-29T02:06:11;22.54;47.51
68844;DHT22;55850;51.244;6.824;2022-07-29T02:11:17;22.58;47.25
68844;DHT22;55850;51.244;6.824;2022-07-29T02:16:27;22.38;47.58
68844;DHT22;55850;51.244;6.824;2022-07-29T02:21:35;22.24;48.25
68844;DHT22;55850;51.244;6.824;2022-07-29T02:26:41;22.10;48.67
68844;DHT22;55850;51.244;6.824;2022-07-29T02:31:51;22.13;48.62
68844;DHT22;55850;51.244;6.824;2022-07-29T02:36:58;22.18;48.57
68844;DHT22;55850;51.244;6.824;2022-07-29T02:42:07;21.55;48.39
68844;DHT22;55850;51.244;6.824;2022-07-29T02:47:18;21.58;48.81
68844;DHT22;55850;51.244;6.824;2022-07-29T02:52:26;21.34;49.22
68844;DHT22;55850;51.244;6.824;2022-07-29T02:57:37;21.51;48.44
68844;DHT22;55850;51.244;6.824;2022-07-29T03:03:00;21.62;48.51
68844;DHT22;55850;51.244;6.824;2022-07-29T03:08:11;21.53;48.63
68844;DHT22;55850;51.244;6.824;2022-07-29T03:13:16;21.41;48.55
68844;DHT22;55850;51.244;6.824;2022-07-29T03:18:25;21.42;48.64
68844;DHT22;55850;51.244;6.824;2022-07-29T03:23:31;21.35;48.91
68844;DHT22;55850;51.244;6.824;2022-07-29T03:28:38;21.61;48.46
68844;DHT22;55850;51.244;6.824;2022-07-29T03:33:46;21.30;49.36
68844;DHT22;55850;51.244;6.824;2022-07-29T03:38:52;21.04;51.02
68844;DHT22;55850;51.244;6.824;2022-07-29T03:44:00;20.42;55.56
68844;DHT22;55850;51.244;6.824;2022-07-29T03:49:11;19.81;59.04
68844;DHT22;55850;51.244;6.824;2022-07-29T03:54:17;19.44;59.76
68844;DHT22;55850;51.244;6.824;2022-07-29T03:59:23;18.95;62.19
68844;DHT22;55850;51.244;6.824;2022-07-29T04:04:32;18.79;62.77
68844;DHT22;55850;51.244;6.824;2022-07-29T04:09:38;18.78;61.63
68844;DHT22;55850;51.244;6.824;2022-07-29T04:14:43;18.07;64.31
68844;DHT22;55850;51.244;6.824;2022-07-29T04:19:52;17.18;67.77
68844;DHT22;55850;51.244;6.824;2022-07-29T04:24:57;17.18;67.06
68844;DHT22;55850;51.244;6.824;2022-07-29T04:30:07;17.29;69.10
68844;DHT22;55850;51.244;6.824;2022-07-29T04:35:15;17.58;68.74
68844;DHT22;55850;51.244;6.824;2022-07-29T04:40:20;17.62;67.62
68844;DHT22;55850;51.244;6.824;2022-07-29T04:45:26;17.70;67.60
68844;DHT22;55850;51.244;6.824;2022-07-29T04:50:34;17.66;69.24
68844;DHT22;55850;51.244;6.824;2022-07-29T04:55:39;17.65;68.89
68844;DHT22;55850;51.244;6.824;2022-07-29T05:00:45;17.72;68.90
68844;DHT22;55850;51.244;6.824;2022-07-29T05:05:53;17.53;68.79
68844;DHT22;55850;51.244;6.824;2022-07-29T05:10:58;17.45;69.55
68844;DHT22;55850;51.244;6.824;2022-07-29T05:16:13;17.21;68.73
68844;DHT22;55850;51.244;6.824;2022-07-29T05:21:22;17.72;67.29
68844;DHT22;55850;51.244;6.824;2022-07-29T05:26:27;17.43;68.93
68844;DHT22;55850;51.244;6.824;2022-07-29T05:31:33;17.25;69.38
68844;DHT22;55850;51.244;6.824;2022-07-29T05:36:43;17.22;69.75
68844;DHT22;55850;51.244;6.824;2022-07-29T05:41:48;17.29;68.98
68844;DHT22;55850;51.244;6.824;2022-07-29T05:46:54;17.38;66.25
68844;DHT22;55850;51.244;6.824;2022-07-29T05:52:02;17.32;67.92
68844;DHT22;55850;51.244;6.824;2022-07-29T05:57:08;17.65;67.01
68844;DHT22;55850;51.244;6.824;2022-07-29T06:02:13;17.77;66.61
68844;DHT22;55850;51.244;6.824;2022-07-29T06:07:21;17.97;66.62
68844;DHT22;55850;51.244;6.824;2022-07-29T06:12:27;18.23;63.83
68844;DHT22;55850;51.244;6.824;2022-07-29T06:17:32;18.28;63.79
68844;DHT22;55850;51.244;6.824;2022-07-29T06:23:01;18.52;63.10
68844;DHT22;55850;51.244;6.824;2022-07-29T06:28:06;18.75;64.34
68844;DHT22;55850;51.244;6.824;2022-07-29T06:33:16;18.75;66.48
68844;DHT22;55850;51.244;6.824;2022-07-29T06:38:25;18.73;69.65
68844;DHT22;55850;51.244;6.824;2022-07-29T06:43:37;18.75;67.54
68844;DHT22;55850;51.244;6.824;2022-07-29T06:48:55;18.55;69.09
68844;DHT22;55850;51.244;6.824;2022-07-29T06:54:05;18.45;70.54
68844;DHT22;55850;51.244;6.824;2022-07-29T06:59:12;18.81;71.45
68844;DHT22;55850;51.244;6.824;2022-07-29T07:04:17;18.78;71.69
68844;DHT22;55850;51.244;6.824;2022-07-29T07:09:26;19.00;69.79
68844;DHT22;55850;51.244;6.824;2022-07-29T07:14:41;19.47;68.74
68844;DHT22;55850;51.244;6.824;2022-07-29T07:19:47;19.60;68.46
68844;DHT22;55850;51.244;6.824;2022-07-29T07:24:55;19.63;68.50
68844;DHT22;55850;51.244;6.824;2022-07-29T07:30:01;19.77;67.96
68844;DHT22;55850;51.244;6.824;2022-07-29T07:35:09;19.57;69.17
68844;DHT22;55850;51.244;6.824;2022-07-29T07:40:17;19.20;69.94
68844;DHT22;55850;51.244;6.824;2022-07-29T07:45:22;19.36;70.73
68844;DHT22;55850;51.244;6.824;2022-07-29T07:50:28;19.49;70.07
68844;DHT22;55850;51.244;6.824;2022-07-29T07:55:39;19.28;71.13
68844;DHT22;55850;51.244;6.824;2022-07-29T08:01:05;19.05;71.92
68844;DHT22;55850;51.244;6.824;2022-07-29T08:06:11;19.17;72.22
68844;DHT22;55850;51.244;6.824;2022-07-29T08:11:20;19.23;70.87
68844;DHT22;55850;51.244;6.824;2022-07-29T08:16:25;19.22;70.20
68844;DHT22;55850;51.244;6.824;2022-07-29T08:21:31;18.96;70.15
68844;DHT22;55850;51.244;6.824;2022-07-29T08:26:41;18.86;70.10
68844;DHT22;55850;51.244;6.824;2022-07-29T08:31:47;18.75;71.39
68844;DHT22;55850;51.244;6.824;2022-07-29T08:36:52;18.40;71.68
68844;DHT22;55850;51.244;6.824;2022-07-29T08:42:00;18.55;73.13
68844;DHT22;55850;51.244;6.824;2022-07-29T08:47:06;18.92;72.19
68844;DHT22;55850;51.244;6.824;2022-07-29T08:52:12;18.88;73.02
68844;DHT22;55850;51.244;6.824;2022-07-29T08:57:23;19.00;72.41
68844;DHT22;55850;51.244;6.824;2022-07-29T09:02:36;19.09;72.00
68844;DHT22;55850;51.244;6.824;2022-07-29T09:07:48;19.05;72.27
68844;DHT22;55850;51.244;6.824;2022-07-29T09:12:58;19.37;70.35
68844;DHT22;55850;51.244;6.824;2022-07-29T09:18:03;19.60;70.53
68844;DHT22;55850;51.244;6.824;2022-07-29T09:23:20;19.40;71.57
68844;DHT22;55850;51.244;6.824;2022-07-29T09:28:29;19.77;69.39
68844;DHT22;55850;51.244;6.824;2022-07-29T09:33:34;20.09;68.98
68844;DHT22;55850;51.244;6.824;2022-07-29T09:38:42;20.57;65.63
68844;DHT22;55850;51.244;6.824;2022-07-29T09:43:56;21.03;63.79
68844;DHT22;55850;51.244;6.824;2022-07-29T09:49:08;21.14;64.56
68844;DHT22;55850;51.244;6.824;2022-07-29T09:54:24;21.43;62.73
68844;DHT22;55850;51.244;6.824;2022-07-29T09:59:33;21.63;60.99
68844;DHT22;55850;51.244;6.824;2022-07-29T10:04:52;21.25;63.48
68844;DHT22;55850;51.244;6.824;2022-07-29T10:09:57;21.58;62.22
68844;DHT22;55850;51.244;6.824;2022-07-29T10:15:07;21.69;63.38
68844;DHT22;55850;51.244;6.824;2022-07-29T10:20:13;22.11;61.52
68844;DHT22;55850;51.244;6.824;2022-07-29T10:25:20;22.10;62.93
68844;DHT22;55850;51.244;6.824;2022-07-29T10:30:28;21.99;61.66
68844;DHT22;55850;51.244;6.824;2022-07-29T10:35:44;22.09;61.91
68844;DHT22;55850;51.244;6.824;2022-07-29T10:40:57;22.14;61.10
68844;DHT22;55850;51.244;6.824;2022-07-29T10:46:41;22.40;60.27
68844;DHT22;55850;51.244;6.824;2022-07-29T10:51:54;22.41;60.02
68844;DHT22;55850;51.244;6.824;2022-07-29T10:57:25;21.90;62.52
68844;DHT22;55850;51.244;6.824;2022-07-29T11:02:54;22.01;60.99
68844;DHT22;55850;51.244;6.824;2022-07-29T11:08:19;22.06;59.61
68844;DHT22;55850;51.244;6.824;2022-07-29T11:13:50;22.87;58.40
68844;DHT22;55850;51.244;6.824;2022-07-29T11:19:22;23.20;55.21
68844;DHT22;55850;51.244;6.824;2022-07-29T11:24:32;23.42;52.65
68844;DHT22;55850;51.244;6.824;2022-07-29T11:29:40;23.49;53.46
68844;DHT22;55850;51.244;6.824;2022-07-29T11:35:17;23.73;50.83
68844;DHT22;55850;51.244;6.824;2022-07-29T11:40:39;23.49;49.75
68844;DHT22;55850;51.244;6.824;2022-07-29T11:45:46;24.05;49.94
68844;DHT22;55850;51.244;6.824;2022-07-29T11:50:54;24.38;49.01
68844;DHT22;55850;51.244;6.824;2022-07-29T11:56:00;24.69;47.48
68844;DHT22;55850;51.244;6.824;2022-07-29T12:01:06;24.91;48.46
68844;DHT22;55850;51.244;6.824;2022-07-29T12:06:14;25.23;48.18
68844;DHT22;55850;51.244;6.824;2022-07-29T12:11:22;25.03;48.77
68844;DHT22;55850;51.244;6.824;2022-07-29T12:16:35;24.88;47.40
68844;DHT22;55850;51.244;6.824;2022-07-29T12:21:49;24.80;48.10
68844;DHT22;55850;51.244;6.824;2022-07-29T12:27:00;24.49;48.14
68844;DHT22;55850;51.244;6.824;2022-07-29T12:32:06;24.53;48.48
68844;DHT22;55850;51.244;6.824;2022-07-29T12:37:19;24.70;48.39
68844;DHT22;55850;51.244;6.824;2022-07-29T12:48:32;25.20;48.81
68844;DHT22;55850;51.244;6.824;2022-07-29T12:53:41;25.06;49.45
68844;DHT22;55850;51.244;6.824;2022-07-29T12:58:46;24.87;49.79
68844;DHT22;55850;51.244;6.824;2022-07-29T13:03:54;24.90;48.18
68844;DHT22;55850;51.244;6.824;2022-07-29T13:09:12;24.80;49.37
68844;DHT22;55850;51.244;6.824;2022-07-29T13:14:30;24.83;48.04
68844;DHT22;55850;51.244;6.824;2022-07-29T13:19:38;24.76;47.57
68844;DHT22;55850;51.244;6.824;2022-07-29T13:24:51;24.66;48.40
68844;DHT22;55850;51.244;6.824;2022-07-29T13:29:58;24.76;48.92
68844;DHT22;55850;51.244;6.824;2022-07-29T13:35:07;24.73;48.75
68844;DHT22;55850;51.244;6.824;2022-07-29T13:40:16;24.76;47.73
68844;DHT22;55850;51.244;6.824;2022-07-29T13:45:23;24.75;49.14
68844;DHT22;55850;51.244;6.824;2022-07-29T13:50:30;24.75;48.37
68844;DHT22;55850;51.244;6.824;2022-07-29T13:55:38;24.91;48.11
68844;DHT22;55850;51.244;6.824;2022-07-29T14:00:44;24.72;48.92
68844;DHT22;55850;51.244;6.824;2022-07-29T14:05:49;24.72;48.32
68844;DHT22;55850;51.244;6.824;2022-07-29T14:10:57;24.56;48.24
68844;DHT22;55850;51.244;6.824;2022-07-29T14:16:03;24.45;48.46
68844;DHT22;55850;51.244;6.824;2022-07-29T14:21:09;24.46;48.31
68844;DHT22;55850;51.244;6.824;2022-07-29T14:26:17;24.36;48.30
68844;DHT22;55850;51.244;6.824;2022-07-29T14:31:25;24.25;49.03
68844;DHT22;55850;51.244;6.824;2022-07-29T14:36:31;24.53;48.84
68844;DHT22;55850;51.244;6.824;2022-07-29T14:41:39;24.45;48.55
68844;DHT22;55850;51.244;6.824;2022-07-29T14:46:45;24.40;49.12
68844;DHT22;55850;51.244;6.824;2022-07-29T14:51:50;24.46;48.66
68844;DHT22;55850;51.244;6.824;2022-07-29T14:56:59;24.40;48.61
68844;DHT22;55850;51.244;6.824;2022-07-29T15:02:04;24.28;47.77
68844;DHT22;55850;51.244;6.824;2022-07-29T15:07:10;24.26;47.89
68844;DHT22;55850;51.244;6.824;2022-07-29T15:12:18;24.22;48.87
68844;DHT22;55850;51.244;6.824;2022-07-29T15:17:25;24.36;47.88
68844;DHT22;55850;51.244;6.824;2022-07-29T15:22:31;24.32;48.79
68844;DHT22;55850;51.244;6.824;2022-07-29T15:27:39;24.49;47.59
68844;DHT22;55850;51.244;6.824;2022-07-29T15:32:53;24.48;47.97
68844;DHT22;55850;51.244;6.824;2022-07-29T15:37:58;24.57;47.20
68844;DHT22;55850;51.244;6.824;2022-07-29T15:43:07;24.52;46.00
68844;DHT22;55850;51.244;6.824;2022-07-29T15:48:12;24.30;46.42
68844;DHT22;55850;51.244;6.824;2022-07-29T15:53:19;24.30;46.40
68844;DHT22;55850;51.244;6.824;2022-07-29T15:58:27;24.25;46.75
68844;DHT22;55850;51.244;6.824;2022-07-29T16:03:33;24.29;46.24
68844;DHT22;55850;51.244;6.824;2022-07-29T16:08:38;24.39;45.47
68844;DHT22;55850;51.244;6.824;2022-07-29T16:13:46;24.35;45.94
68844;DHT22;55850;51.244;6.824;2022-07-29T16:18:52;24.32;44.96
68844;DHT22;55850;51.244;6.824;2022-07-29T16:23:59;24.40;43.67
68844;DHT22;55850;51.244;6.824;2022-07-29T16:29:07;24.36;44.60
68844;DHT22;55850;51.244;6.824;2022-07-29T16:34:13;24.32;43.19
68844;DHT22;55850;51.244;6.824;2022-07-29T16:39:18;24.38;44.67
68844;DHT22;55850;51.244;6.824;2022-07-29T16:44:28;24.33;44.28
68844;DHT22;55850;51.244;6.824;2022-07-29T16:49:36;24.12;44.56
68844;DHT22;55850;51.244;6.824;2022-07-29T16:54:41;24.05;45.48
68844;DHT22;55850;51.244;6.824;2022-07-29T16:59:49;24.12;46.57
68844;DHT22;55850;51.244;6.824;2022-07-29T17:04:55;24.21;46.16
68844;DHT22;55850;51.244;6.824;2022-07-29T17:10:05;23.98;47.54
68844;DHT22;55850;51.244;6.824;2022-07-29T17:15:13;24.11;47.32
68844;DHT22;55850;51.244;6.824;2022-07-29T17:20:20;24.11;47.35
68844;DHT22;55850;51.244;6.824;2022-07-29T17:25:25;24.18;47.66
68844;DHT22;55850;51.244;6.824;2022-07-29T17:30:34;24.24;47.81
68844;DHT22;55850;51.244;6.824;2022-07-29T17:35:39;24.12;48.34
68844;DHT22;55850;51.244;6.824;2022-07-29T17:40:57;24.07;48.43
68844;DHT22;55850;51.244;6.824;2022-07-29T17:46:11;24.15;48.86
68844;DHT22;55850;51.244;6.824;2022-07-29T17:51:17;24.12;49.27
68844;DHT22;55850;51.244;6.824;2022-07-29T17:56:25;24.04;49.50
68844;DHT22;55850;51.244;6.824;2022-07-29T18:01:33;23.95;49.67
68844;DHT22;55850;51.244;6.824;2022-07-29T18:06:39;23.82;50.42
68844;DHT22;55850;51.244;6.824;2022-07-29T18:11:45;23.84;50.52
68844;DHT22;55850;51.244;6.824;2022-07-29T18:16:53;23.74;50.57
68844;DHT22;55850;51.244;6.824;2022-07-29T18:21:59;23.70;50.51
68844;DHT22;55850;51.244;6.824;2022-07-29T18:27:07;23.53;50.85
68844;DHT22;55850;51.244;6.824;2022-07-29T18:32:15;23.40;50.99
68844;DHT22;55850;51.244;6.824;2022-07-29T18:37:30;23.47;51.16
68844;DHT22;55850;51.244;6.824;2022-07-29T18:42:56;23.33;52.01
68844;DHT22;55850;51.244;6.824;2022-07-29T18:48:05;23.19;53.34
68844;DHT22;55850;51.244;6.824;2022-07-29T18:53:15;23.02;53.31
68844;DHT22;55850;51.244;6.824;2022-07-29T18:58:20;23.05;53.22
68844;DHT22;55850;51.244;6.824;2022-07-29T19:03:28;22.82;55.10
68844;DHT22;55850;51.244;6.824;2022-07-29T19:08:33;22.73;55.30
68844;DHT22;55850;51.244;6.824;2022-07-29T19:13:39;22.79;55.21
68844;DHT22;55850;51.244;6.824;2022-07-29T19:18:47;22.82;54.22
68844;DHT22;55850;51.244;6.824;2022-07-29T19:23:53;22.45;54.96
68844;DHT22;55850;51.244;6.824;2022-07-29T19:29:08;22.31;55.88
68844;DHT22;55850;51.244;6.824;2022-07-29T19:34:17;22.20;55.81
68844;DHT22;55850;51.244;6.824;2022-07-29T19:39:22;21.99;56.97
68844;DHT22;55850;51.244;6.824;2022-07-29T19:44:36;21.92;57.57
68844;DHT22;55850;51.244;6.824;2022-07-29T19:49:44;21.93;57.52
68844;DHT22;55850;51.244;6.824;2022-07-29T19:54:50;21.85;57.58
68844;DHT22;55850;51.244;6.824;2022-07-29T19:59:55;21.73;57.92
68844;DHT22;55850;51.244;6.824;2022-07-29T20:05:05;21.55;58.31
68844;DHT22;55850;51.244;6.824;2022-07-29T20:10:10;21.53;58.00
68844;DHT22;55850;51.244;6.824;2022-07-29T20:15:16;21.45;58.50
68844;DHT22;55850;51.244;6.824;2022-07-29T20:20:25;21.37;58.82
68844;DHT22;55850;51.244;6.824;2022-07-29T20:25:31;21.08;59.67
68844;DHT22;55850;51.244;6.824;2022-07-29T20:30:36;21.22;59.79
68844;DHT22;55850;51.244;6.824;2022-07-29T20:35:45;21.21;60.23
68844;DHT22;55850;51.244;6.824;2022-07-29T20:40:53;21.45;60.08
68844;DHT22;55850;51.244;6.824;2022-07-29T20:46:00;21.55;59.74
68844;DHT22;55850;51.244;6.824;2022-07-29T20:51:08;21.76;58.71
68844;DHT22;55850;51.244;6.824;2022-07-29T20:56:13;21.82;58.85
68844;DHT22;55850;51.244;6.824;2022-07-29T21:01:18;21.85;58.96
68844;DHT22;55850;51.244;6.824;2022-07-29T21:06:27;22.13;58.23
68844;DHT22;55850;51.244;6.824;2022-07-29T21:11:32;22.13;58.31
68844;DHT22;55850;51.244;6.824;2022-07-29T21:16:46;21.58;59.96
68844;DHT22;55850;51.244;6.824;2022-07-29T21:21:54;21.37;60.69
68844;DHT22;55850;51.244;6.824;2022-07-29T21:27:00;21.25;61.15
68844;DHT22;55850;51.244;6.824;2022-07-29T21:32:22;21.22;60.78
68844;DHT22;55850;51.244;6.824;2022-07-29T21:37:34;21.12;61.18
68844;DHT22;55850;51.244;6.824;2022-07-29T21:42:40;21.08;61.32
68844;DHT22;55850;51.244;6.824;2022-07-29T21:47:46;21.10;61.20
68844;DHT22;55850;51.244;6.824;2022-07-29T21:52:54;21.03;61.73
68844;DHT22;55850;51.244;6.824;2022-07-29T21:58:00;21.03;61.41
68844;DHT22;55850;51.244;6.824;2022-07-29T22:03:07;20.94;61.74
68844;DHT22;55850;51.244;6.824;2022-07-29T22:08:15;20.95;62.17
68844;DHT22;55850;51.244;6.824;2022-07-29T22:13:21;20.97;61.61
68844;DHT22;55850;51.244;6.824;2022-07-29T22:18:26;21.05;61.36
68844;DHT22;55850;51.244;6.824;2022-07-29T22:23:35;21.07;61.12
68844;DHT22;55850;51.244;6.824;2022-07-29T22:28:43;21.14;61.19
68844;DHT22;55850;51.244;6.824;2022-07-29T22:33:49;21.11;61.73
68844;DHT22;55850;51.244;6.824;2022-07-29T22:38:57;21.04;61.93
68844;DHT22;55850;51.244;6.824;2022-07-29T22:44:03;20.91;62.50
68844;DHT22;55850;51.244;6.824;2022-07-29T22:49:09;21.04;62.31
68844;DHT22;55850;51.244;6.824;2022-07-29T22:54:17;20.83;63.33
68844;DHT22;55850;51.244;6.824;2022-07-29T22:59:22;20.81;62.50
68844;DHT22;55850;51.244;6.824;2022-07-29T23:04:27;20.69;62.77
68844;DHT22;55850;51.244;6.824;2022-07-29T23:09:38;20.62;63.21
68844;DHT22;55850;51.244;6.824;2022-07-29T23:14:44;20.60;63.35
68844;DHT22;55850;51.244;6.824;2022-07-29T23:19:49;20.53;63.78
68844;DHT22;55850;51.244;6.824;2022-07-29T23:24:57;20.32;64.69
68844;DHT22;55850;51.244;6.824;2022-07-29T23:30:04;20.23;64.83
68844;DHT22;55850;51.244;6.824;2022-07-29T23:35:10;20.25;64.96
68844;DHT22;55850;51.244;6.824;2022-07-29T23:40:18;20.30;64.00
68844;DHT22;55850;51.244;6.824;2022-07-29T23:45:26;20.09;65.03
68844;DHT22;55850;51.244;6.824;2022-07-29T23:50:46;20.12;64.84
68844;DHT22;55850;51.244;6.824;2022-07-29T23:55:54;20.04;64.55
